Time;durP1;ratioP1;P1;durP2;ratioP2;P2;SDS_P1;SDS_P2;PMS_P1;PMS_P2;Temp;Humidity;BMP_temperature;BMP_pressure;BME280_temperature;BME280_humidity;BME280_pressure;Samples;Min_cycle;Max_cycle;Signal;HPM_P1;HPM_P2
2022/08/12 00:44:55;;;;;;;1.88;0.30;;;20.50;99.90;;;;;;5094403;28;20059;-74
2022/08/12 00:47:22;;;;;;;0.93;0.40;;;20.40;99.90;;;;;;5093940;28;20098;-73
2022/08/12 00:49:48;;;;;;;1.58;0.20;;;20.40;99.90;;;;;;5094476;28;20024;-72
2022/08/12 00:52:15;;;;;;;2.50;0.20;;;20.40;99.90;;;;;;5092556;28;20436;-74
2022/08/12 00:54:49;;;;;;;1.27;0.32;;;20.40;99.90;;;;;;5093404;28;20016;-74
2022/08/12 00:57:18;;;;;;;1.48;0.45;;;20.30;99.90;;;;;;5093924;28;20048;-74
2022/08/12 01:00:07;;;;;;;3.33;0.10;;;20.30;99.90;;;;;;5094038;28;20038;-74
2022/08/12 01:02:39;;;;;;;0.85;0.13;;;20.30;99.90;;;;;;5093806;28;20082;-74
2022/08/12 01:13:32;;;;;;;2.17;0.90;;;20.10;99.90;;;;;;5094039;28;20043;-74
2022/08/12 01:16:01;;;;;;;1.30;0.10;;;20.00;99.90;;;;;;5093497;28;20028;-74
2022/08/12 01:18:32;;;;;;;2.15;0.32;;;20.00;99.90;;;;;;5093848;28;20798;-74
2022/08/12 01:21:42;;;;;;;2.28;0.30;;;20.00;99.90;;;;;;5093456;28;20023;-74
2022/08/12 01:24:48;;;;;;;3.65;0.20;;;19.90;99.90;;;;;;5092422;28;20024;-74
2022/08/12 01:27:16;;;;;;;2.17;0.20;;;19.90;99.90;;;;;;5093620;28;20024;-74
2022/08/12 01:29:44;;;;;;;1.23;0.37;;;19.80;99.90;;;;;;5093541;28;20473;-74
2022/08/12 01:32:11;;;;;;;3.60;0.10;;;19.80;99.90;;;;;;5093297;28;20281;-74
2022/08/12 01:34:40;;;;;;;0.65;0.22;;;19.80;99.90;;;;;;5093668;28;20034;-74
2022/08/12 01:37:08;;;;;;;1.35;0.20;;;19.80;99.90;;;;;;5093380;28;20020;-74
2022/08/12 01:39:51;;;;;;;0.45;0.32;;;19.80;99.90;;;;;;5093702;28;20478;-75
2022/08/12 01:42:20;;;;;;;2.78;0.60;;;19.80;99.90;;;;;;5093540;28;20469;-74
2022/08/12 01:44:48;;;;;;;2.90;0.20;;;19.70;99.90;;;;;;5093605;28;20062;-74
2022/08/12 01:47:21;;;;;;;1.20;0.40;;;19.70;99.90;;;;;;5091994;28;20035;-74
2022/08/12 01:50:03;;;;;;;1.67;0.55;;;19.70;99.90;;;;;;5092036;28;20028;-74
2022/08/12 01:52:52;;;;;;;2.35;0.32;;;19.60;99.90;;;;;;5092003;28;20028;-74
2022/08/12 01:55:33;;;;;;;4.45;0.82;;;19.60;99.90;;;;;;5091915;28;20020;-74
2022/08/12 01:58:04;;;;;;;2.40;0.43;;;19.60;99.90;;;;;;5093172;28;20058;-74
2022/08/12 02:00:43;;;;;;;2.22;0.43;;;19.50;99.90;;;;;;5093039;28;20100;-74
2022/08/12 02:03:28;;;;;;;;;;;19.50;99.90;;;;;;5092190;28;20466;-75
2022/08/12 02:12:08;;;;;;;3.08;0.60;;;19.50;99.90;;;;;;5093747;28;20448;-74
2022/08/12 02:14:50;;;;;;;1.38;0.30;;;19.50;99.90;;;;;;5092992;28;20127;-74
2022/08/12 02:17:47;;;;;;;1.20;0.20;;;19.50;99.90;;;;;;5092045;28;20046;-79
2022/08/12 02:20:20;;;;;;;2.17;0.40;;;19.50;99.90;;;;;;5094322;28;20353;-77
2022/08/12 02:22:47;;;;;;;1.85;0.20;;;19.40;99.90;;;;;;5095626;28;20025;-77
2022/08/12 02:25:35;;;;;;;0.50;0.20;;;19.40;99.90;;;;;;5096941;28;20035;-76
2022/08/12 02:28:00;;;;;;;2.67;0.80;;;19.40;99.90;;;;;;5096724;28;20020;-76
2022/08/12 02:30:30;;;;;;;2.40;0.40;;;19.40;99.90;;;;;;5096754;28;20020;-76
2022/08/12 02:32:58;;;;;;;1.98;0.25;;;19.40;99.90;;;;;;5096638;28;20024;-76
2022/08/12 02:35:26;;;;;;;2.75;0.52;;;19.40;99.90;;;;;;5096564;28;20465;-76
2022/08/12 02:37:57;;;;;;;3.13;0.47;;;19.40;99.90;;;;;;5096375;28;20052;-76
2022/08/12 02:40:24;;;;;;;1.05;0.47;;;19.40;99.90;;;;;;5095372;28;20114;-76
2022/08/12 02:42:58;;;;;;;1.45;0.30;;;19.20;99.90;;;;;;5096480;28;20102;-76
2022/08/12 02:45:50;;;;;;;5.68;0.70;;;19.30;99.90;;;;;;5096415;28;20067;-76
2022/08/12 02:48:43;;;;;;;0.82;0.25;;;19.30;99.90;;;;;;5096678;28;20020;-76
2022/08/12 02:51:12;;;;;;;1.80;0.20;;;19.20;99.90;;;;;;5096272;28;20020;-76
2022/08/12 02:53:38;;;;;;;2.47;0.40;;;19.20;99.90;;;;;;5096247;28;20028;-76
2022/08/12 02:56:05;;;;;;;1.80;0.20;;;19.10;99.90;;;;;;5096464;28;20039;-76
2022/08/12 02:58:34;;;;;;;4.78;0.70;;;19.10;99.90;;;;;;5094850;28;20033;-76
2022/08/12 03:01:01;;;;;;;2.83;0.47;;;19.00;99.90;;;;;;5094808;28;20024;-76
2022/08/12 03:03:31;;;;;;;3.15;0.57;;;19.00;99.90;;;;;;5096360;28;20424;-76
2022/08/12 03:06:00;;;;;;;3.17;0.50;;;19.00;99.90;;;;;;5096024;28;20046;-76
2022/08/12 03:08:31;;;;;;;1.85;0.75;;;19.00;99.90;;;;;;5096328;28;20020;-76
2022/08/12 03:11:03;;;;;;;3.70;0.60;;;20.00;99.90;;;;;;5094442;28;20370;-75
2022/08/12 03:13:32;;;;;;;1.40;0.35;;;19.00;99.90;;;;;;5094680;28;20024;-74
2022/08/12 03:15:57;;;;;;;4.63;0.85;;;18.90;99.90;;;;;;5095596;28;20024;-74
2022/08/12 03:18:29;;;;;;;4.22;0.65;;;18.90;99.90;;;;;;5095964;28;20031;-74
2022/08/12 03:20:59;;;;;;;4.75;0.77;;;18.90;99.90;;;;;;5095806;28;20028;-74
2022/08/12 03:23:26;;;;;;;2.33;0.30;;;18.80;99.90;;;;;;5094516;28;20557;-75
2022/08/12 03:25:55;;;;;;;4.15;0.52;;;18.70;99.90;;;;;;5096103;28;20024;-75
2022/08/12 03:31:08;;;;;;;3.20;0.52;;;18.70;99.90;;;;;;5095603;28;20166;-74
2022/08/12 03:33:36;;;;;;;0.50;0.40;;;18.70;99.90;;;;;;5095679;28;20107;-74
2022/08/12 03:36:08;;;;;;;1.55;0.70;;;18.70;99.90;;;;;;5095225;28;20389;-75
2022/08/12 03:38:39;;;;;;;1.60;0.90;;;18.60;99.90;;;;;;5095563;28;20073;-73
2022/08/12 03:41:35;;;;;;;1.23;0.60;;;18.60;99.90;;;;;;5094979;28;20016;-73
2022/08/12 04:00:45;;;;;;;2.05;0.50;;;18.60;99.90;;;;;;5095061;28;20035;-72
2022/08/12 04:05:56;;;;;;;3.55;0.88;;;18.60;99.90;;;;;;5095551;28;20085;-72
2022/08/12 04:08:25;;;;;;;6.57;0.93;;;18.60;99.90;;;;;;5094703;28;20448;-72
2022/08/12 04:13:40;;;;;;;3.45;0.82;;;18.50;99.90;;;;;;5094740;28;20126;-72
2022/08/12 04:16:09;;;;;;;2.85;0.75;;;18.50;99.90;;;;;;5094440;28;20107;-73
2022/08/12 04:18:37;;;;;;;5.80;0.55;;;18.50;99.90;;;;;;5094410;28;20027;-72
2022/08/12 04:21:09;;;;;;;2.22;0.70;;;18.40;99.90;;;;;;5093061;28;20046;-72
2022/08/12 04:23:37;;;;;;;1.38;0.82;;;18.40;99.90;;;;;;5094625;28;20024;-73
2022/08/12 04:26:05;;;;;;;1.13;0.82;;;18.40;99.90;;;;;;5094499;28;20492;-75
2022/08/12 04:28:33;;;;;;;2.70;0.80;;;18.40;99.90;;;;;;5094515;28;20445;-75
2022/08/12 04:30:59;;;;;;;2.28;1.27;;;18.40;99.90;;;;;;5094301;28;20024;-76
2022/08/12 04:33:25;;;;;;;2.35;0.70;;;18.40;99.90;;;;;;5093219;28;20026;-76
2022/08/12 04:35:52;;;;;;;2.05;0.82;;;18.40;99.90;;;;;;5092712;28;20480;-75
2022/08/12 04:38:19;;;;;;;3.35;1.10;;;18.30;99.90;;;;;;5094329;28;20496;-76
2022/08/12 04:40:45;;;;;;;2.53;0.82;;;18.30;99.90;;;;;;5094027;28;20011;-75
2022/08/12 04:43:11;;;;;;;2.15;0.80;;;18.30;99.90;;;;;;5091961;28;20382;-77
2022/08/12 04:45:38;;;;;;;1.48;0.70;;;18.20;99.90;;;;;;5094529;28;20110;-76
2022/08/12 04:48:05;;;;;;;2.25;0.68;;;18.30;99.90;;;;;;5092587;28;20396;-76
2022/08/12 04:50:31;;;;;;;3.92;1.23;;;19.00;99.90;;;;;;5093973;28;20031;-76
2022/08/12 04:52:59;;;;;;;3.20;0.90;;;18.30;99.90;;;;;;5094167;28;20035;-76
2022/08/12 04:55:26;;;;;;;1.43;0.80;;;18.30;99.90;;;;;;5093891;28;20024;-76
2022/08/12 04:57:52;;;;;;;2.65;0.75;;;18.30;99.90;;;;;;5093870;28;20291;-74
2022/08/12 05:00:18;;;;;;;5.35;0.80;;;18.40;99.90;;;;;;5093646;28;20021;-74
2022/08/12 05:02:43;;;;;;;4.88;1.13;;;18.40;99.90;;;;;;5092354;28;20093;-74
2022/08/12 05:05:21;;;;;;;1.45;0.47;;;18.50;99.90;;;;;;5093942;28;20020;-74
2022/08/12 05:07:48;;;;;;;3.45;0.75;;;18.50;99.90;;;;;;5093931;28;20024;-75
2022/08/12 05:10:15;;;;;;;3.60;0.95;;;18.60;99.90;;;;;;5093771;28;20032;-74
2022/08/12 05:12:44;;;;;;;2.50;1.23;;;18.60;99.90;;;;;;5092111;28;20051;-75
2022/08/12 05:15:12;;;;;;;1.45;0.85;;;18.60;99.90;;;;;;5094412;28;20031;-76
2022/08/12 05:17:40;;;;;;;2.95;0.73;;;18.70;99.90;;;;;;5093802;28;20373;-77
2022/08/12 05:20:08;;;;;;;1.77;0.88;;;18.80;99.90;;;;;;5092362;28;20020;-76
2022/08/12 05:22:34;;;;;;;2.83;1.00;;;18.80;99.90;;;;;;5093579;28;20028;-77
2022/08/12 05:25:00;;;;;;;2.15;0.55;;;18.90;99.90;;;;;;5093964;28;20013;-77
2022/08/12 05:27:25;;;;;;;2.35;1.05;;;18.90;99.90;;;;;;5093409;28;20024;-77
2022/08/12 05:29:51;;;;;;;1.83;0.70;;;19.00;99.90;;;;;;5093504;28;20013;-76
2022/08/12 05:32:19;;;;;;;3.15;0.98;;;19.00;99.90;;;;;;5093652;28;20154;-76
2022/08/12 05:34:46;;;;;;;2.67;1.42;;;19.10;99.90;;;;;;5092190;28;20027;-76
2022/08/12 05:37:12;;;;;;;3.38;1.00;;;19.20;99.90;;;;;;5093297;28;20027;-76
2022/08/12 05:39:38;;;;;;;2.40;0.73;;;19.30;99.90;;;;;;5093424;28;20027;-76
2022/08/12 05:42:03;;;;;;;2.33;0.98;;;19.50;99.90;;;;;;5093483;28;20031;-76
2022/08/12 05:44:29;;;;;;;2.47;0.93;;;19.40;99.90;;;;;;5093430;28;20023;-76
2022/08/12 05:46:55;;;;;;;1.85;0.95;;;19.50;99.90;;;;;;5093278;28;20024;-76
2022/08/12 05:49:20;;;;;;;4.60;1.00;;;19.60;99.90;;;;;;5092002;28;20073;-76
2022/08/12 05:51:46;;;;;;;4.18;0.95;;;19.60;99.90;;;;;;5093448;28;20107;-76
2022/08/12 05:54:11;;;;;;;2.22;0.90;;;19.70;99.90;;;;;;5092904;28;20473;-78
2022/08/12 05:56:39;;;;;;;3.30;1.10;;;19.80;99.90;;;;;;5097673;28;20432;-77
2022/08/12 05:59:06;;;;;;;3.05;0.80;;;19.90;99.90;;;;;;5097407;28;20020;-77
2022/08/12 06:01:32;;;;;;;2.92;1.30;;;20.00;99.90;;;;;;5095744;28;20103;-76
2022/08/12 06:03:59;;;;;;;5.35;1.27;;;20.10;99.90;;;;;;5097490;28;20059;-76
2022/08/12 06:06:25;;;;;;;2.47;1.20;;;20.10;99.90;;;;;;5097371;28;20434;-76
2022/08/12 06:08:52;;;;;;;9.40;1.50;;;20.20;99.90;;;;;;5097114;28;20060;-75
2022/08/12 06:11:24;;;;;;;1.23;0.55;;;20.30;99.90;;;;;;5097152;28;20020;-76
2022/08/12 06:13:51;;;;;;;3.90;0.80;;;20.40;99.90;;;;;;5095591;28;20028;-77
2022/08/12 06:16:19;;;;;;;1.00;0.88;;;20.50;99.90;;;;;;5097243;28;20039;-77
2022/08/12 06:18:45;;;;;;;2.95;1.13;;;20.60;99.90;;;;;;5096903;28;20013;-77
2022/08/12 06:21:14;;;;;;;6.57;1.00;;;20.70;99.90;;;;;;5095355;28;20550;-76
2022/08/12 06:23:41;;;;;;;5.50;1.10;;;20.80;99.90;;;;;;5095828;28;20039;-76
2022/08/12 06:26:10;;;;;;;4.93;0.80;;;20.90;99.90;;;;;;5097427;28;20103;-76
2022/08/12 06:28:40;;;;;;;6.00;1.30;;;21.00;99.90;;;;;;5095532;28;20020;-76
2022/08/12 06:31:06;;;;;;;2.92;0.50;;;21.10;99.90;;;;;;5096618;28;20020;-76
2022/08/12 06:33:34;;;;;;;3.10;0.70;;;21.10;99.90;;;;;;5096700;28;20542;-76
2022/08/12 06:36:00;;;;;;;2.50;0.70;;;21.20;99.90;;;;;;5095311;28;20037;-77
2022/08/12 06:38:29;;;;;;;4.20;1.00;;;21.30;99.90;;;;;;5095169;28;20092;-77
2022/08/12 06:43:42;;;;;;;2.22;0.85;;;21.60;99.90;;;;;;5096403;28;20026;-77
2022/08/12 06:46:09;;;;;;;1.90;0.70;;;21.70;99.90;;;;;;5095147;28;20029;-76
2022/08/12 06:48:36;;;;;;;4.13;1.10;;;21.80;99.90;;;;;;5095094;28;20032;-76
2022/08/12 06:51:03;;;;;;;1.63;0.40;;;21.90;99.90;;;;;;5096285;28;20077;-76
2022/08/12 06:53:31;;;;;;;1.23;0.40;;;21.90;99.90;;;;;;5096346;28;20362;-76
2022/08/12 06:55:59;;;;;;;;;;;22.10;99.90;;;;;;5095248;28;20035;-76
2022/08/12 06:58:25;;;;;;;1.40;0.40;;;22.20;99.90;;;;;;5096413;28;19904;-76
2022/08/12 07:00:51;;;;;;;2.15;0.80;;;22.30;99.90;;;;;;5096179;28;20358;-76
2022/08/12 07:03:29;;;;;;;0.98;0.43;;;22.40;99.90;;;;;;5096006;28;20077;-76
2022/08/12 07:05:57;;;;;;;3.33;0.50;;;22.50;99.90;;;;;;5095799;28;20035;-76
2022/08/12 07:08:26;;;;;;;2.88;0.68;;;22.60;99.90;;;;;;5095924;28;20039;-76
2022/08/12 07:10:57;;;;;;;4.47;0.55;;;22.70;99.90;;;;;;5095894;28;20024;-76
2022/08/12 07:16:00;;;;;;;3.75;0.40;;;23.00;99.90;;;;;;5225742;22;20376;-77
2022/08/12 07:18:31;;;;;;;2.83;0.60;;;23.10;99.60;;;;;;5116046;28;20012;-77
2022/08/12 07:21:00;;;;;;;1.00;0.17;;;23.30;99.10;;;;;;5116548;28;20020;-77
2022/08/12 07:23:26;;;;;;;3.10;0.30;;;23.40;98.80;;;;;;5116013;28;20069;-76
2022/08/12 07:25:53;;;;;;;3.22;0.40;;;23.50;98.50;;;;;;5115934;28;20016;-77
2022/08/12 07:28:24;;;;;;;2.92;0.40;;;23.60;98.30;;;;;;5116004;28;20530;-77
2022/08/12 07:30:51;;;;;;;3.80;0.38;;;23.60;98.00;;;;;;5115904;28;20024;-77
2022/08/12 07:33:21;;;;;;;1.02;0.57;;;23.90;97.60;;;;;;5115680;28;20035;-77
2022/08/12 07:35:47;;;;;;;0.95;0.30;;;24.10;97.00;;;;;;5115624;28;20035;-77
2022/08/12 07:38:24;;;;;;;1.30;0.40;;;24.20;96.10;;;;;;5114638;28;20416;-77
2022/08/12 07:40:55;;;;;;;0.63;0.30;;;24.30;95.90;;;;;;5115684;28;20019;-77
2022/08/12 07:43:20;;;;;;;2.10;0.10;;;24.50;95.00;;;;;;5115534;28;20016;-77
2022/08/12 07:45:47;;;;;;;2.30;0.50;;;24.60;94.30;;;;;;5115906;28;20053;-77
2022/08/12 07:48:13;;;;;;;2.42;0.38;;;24.70;94.90;;;;;;5115585;28;20019;-77
2022/08/12 07:50:38;;;;;;;2.15;0.17;;;24.90;93.50;;;;;;5114198;28;20073;-77
2022/08/12 07:53:04;;;;;;;2.10;0.15;;;25.00;93.30;;;;;;5114127;28;20023;-76
2022/08/12 07:55:30;;;;;;;2.85;0.40;;;25.10;92.70;;;;;;5115653;28;20072;-77
2022/08/12 07:57:58;;;;;;;1.48;0.47;;;25.30;91.40;;;;;;5115276;28;20487;-77
2022/08/12 08:00:25;;;;;;;0.98;0.32;;;25.40;91.30;;;;;;5115571;28;20418;-77
2022/08/12 08:02:53;;;;;;;11.38;0.68;;;25.50;90.70;;;;;;5113915;28;20026;-77
2022/08/12 08:05:23;;;;;;;3.58;0.30;;;25.70;90.40;;;;;;5115197;28;20178;-77
2022/08/12 08:07:49;;;;;;;1.85;0.25;;;25.90;89.70;;;;;;5115175;28;20023;-77
2022/08/12 08:10:15;;;;;;;2.38;0.28;;;26.00;86.50;;;;;;5113915;28;20023;-77
2022/08/12 08:12:55;;;;;;;0.68;0.40;;;26.20;86.50;;;;;;5115181;28;20541;-77
2022/08/12 08:15:30;;;;;;;4.28;0.13;;;26.40;85.00;;;;;;5113747;28;20028;-77
2022/08/12 08:18:05;;;;;;;3.50;0.35;;;26.50;83.80;;;;;;5114686;28;20350;-77
2022/08/12 08:20:41;;;;;;;0.65;0.20;;;26.60;81.80;;;;;;5113742;28;20051;-77
2022/08/12 08:23:10;;;;;;;2.80;0.52;;;26.80;80.30;;;;;;5113501;28;20550;-77
2022/08/12 08:25:37;;;;;;;6.05;0.28;;;26.90;78.70;;;;;;5115278;28;20165;-77
2022/08/12 08:28:34;;;;;;;0.70;0.30;;;26.90;77.70;;;;;;5114774;28;20027;-75
2022/08/12 08:31:00;;;;;;;3.55;0.25;;;27.10;76.70;;;;;;5112894;28;20480;-75
2022/08/12 08:33:26;;;;;;;2.72;0.22;;;27.20;75.30;;;;;;5113381;28;20030;-75
2022/08/12 08:35:52;;;;;;;4.57;0.65;;;27.40;72.10;;;;;;5113189;28;20024;-75
2022/08/12 08:38:17;;;;;;;4.43;0.45;;;27.50;71.90;;;;;;5114481;28;20051;-75
2022/08/12 08:43:31;;;;;;;2.65;0.30;;;27.80;70.50;;;;;;5115203;28;20080;-76
2022/08/12 08:45:57;;;;;;;;;;;28.00;67.70;;;;;;5113499;28;20019;-75
2022/08/12 08:48:24;;;;;;;3.35;0.57;;;28.20;66.90;;;;;;5113080;28;19903;-75
2022/08/12 08:50:49;;;;;;;1.98;0.20;;;28.30;64.90;;;;;;5114214;28;20051;-76
2022/08/12 08:53:16;;;;;;;1.05;0.30;;;28.40;64.70;;;;;;5114331;28;20023;-76
2022/08/12 08:55:41;;;;;;;5.03;0.40;;;28.50;64.30;;;;;;5114195;28;20531;-76
2022/08/12 08:58:07;;;;;;;6.03;0.52;;;28.60;63.10;;;;;;5114761;28;20104;-75
2022/08/12 09:00:37;;;;;;;4.47;0.45;;;28.80;62.60;;;;;;5114089;28;20110;-75
2022/08/12 09:03:03;;;;;;;1.67;0.03;;;28.90;62.30;;;;;;5112816;28;20054;-75
2022/08/12 09:05:29;;;;;;;4.18;0.20;;;28.90;59.50;;;;;;5114161;28;20428;-75
2022/08/12 09:07:55;;;;;;;4.00;0.40;;;29.00;60.40;;;;;;5114587;28;20019;-75
2022/08/12 09:10:21;;;;;;;0.40;0.20;;;29.00;59.80;;;;;;5114433;28;20036;-75
2022/08/12 09:15:32;;;;;;;4.40;0.40;;;29.20;58.50;;;;;;5113960;28;20054;-75
2022/08/12 09:17:58;;;;;;;1.45;0.43;;;29.30;59.30;;;;;;5114234;28;20447;-77
2022/08/12 09:20:26;;;;;;;2.05;0.20;;;29.40;57.60;;;;;;5114325;28;20050;-76
2022/08/12 09:22:53;;;;;;;0.35;0.10;;;29.50;59.00;;;;;;5112449;28;20012;-76
2022/08/12 09:25:21;;;;;;;2.70;0.28;;;29.60;58.00;;;;;;5112992;28;20054;-78
2022/08/12 09:27:47;;;;;;;0.68;0.15;;;29.60;58.10;;;;;;5114021;28;20027;-76
2022/08/12 09:30:14;;;;;;;2.72;0.73;;;29.70;56.20;;;;;;5113498;28;20423;-77
2022/08/12 09:32:50;;;;;;;1.55;0.10;;;29.80;56.00;;;;;;5112600;28;20031;-76
2022/08/12 09:35:19;;;;;;;6.72;0.82;;;29.90;55.40;;;;;;5113913;28;20067;-76
2022/08/12 09:37:49;;;;;;;7.20;0.15;;;30.10;54.40;;;;;;5113899;28;20042;-77
2022/08/12 09:40:16;;;;;;;2.72;0.10;;;30.20;53.70;;;;;;5114055;28;20020;-77
2022/08/12 09:45:26;;;;;;;0.20;0.10;;;30.50;51.50;;;;;;5114081;28;20596;-77
2022/08/12 09:47:53;;;;;;;1.27;0.10;;;30.50;50.00;;;;;;5113931;28;20100;-77
2022/08/12 09:50:20;;;;;;;1.75;0.30;;;30.60;50.50;;;;;;5112798;28;20475;-77
2022/08/12 09:52:51;;;;;;;3.83;0.10;;;30.70;49.50;;;;;;5113531;28;20096;-77
2022/08/12 09:55:18;;;;;;;3.03;0.20;;;30.90;49.80;;;;;;5113530;28;20048;-78
2022/08/12 09:57:44;;;;;;;5.20;0.38;;;30.90;49.80;;;;;;5114883;28;20024;-78
2022/08/12 10:00:18;;;;;;;1.55;0.08;;;31.00;49.90;;;;;;5113177;28;20019;-79
2022/08/12 10:03:01;;;;;;;0.65;0.15;;;31.10;49.30;;;;;;5113396;28;20051;-78
2022/08/12 10:05:31;;;;;;;0.43;0.10;;;31.30;48.70;;;;;;5114162;28;20023;-78
2022/08/12 10:07:58;;;;;;;0.70;0.05;;;31.40;48.20;;;;;;5113976;28;20472;-76
2022/08/12 10:10:24;;;;;;;0.70;0.00;;;31.40;46.10;;;;;;5113800;28;20026;-76
2022/08/12 10:15:33;;;;;;;1.67;0.10;;;31.50;44.60;;;;;;5113275;28;20050;-77
2022/08/12 10:17:59;;;;;;;2.30;0.30;;;31.60;45.60;;;;;;5113879;28;20110;-76
2022/08/12 10:20:24;;;;;;;0.50;0.10;;;31.60;45.60;;;;;;5112139;28;20392;-76
2022/08/12 10:22:57;;;;;;;2.63;0.20;;;31.80;44.30;;;;;;5113548;28;20020;-75
2022/08/12 10:30:52;;;;;;;0.88;0.10;;;32.20;44.40;;;;;;5113852;28;20081;-73
2022/08/12 10:33:18;;;;;;;4.10;0.10;;;32.30;43.60;;;;;;5113248;28;20438;-77
2022/08/12 10:35:43;;;;;;;1.98;0.15;;;32.50;43.40;;;;;;5112557;28;20054;-78
2022/08/12 10:38:11;;;;;;;1.77;0.20;;;32.60;42.40;;;;;;5113633;28;20065;-78
2022/08/12 10:43:39;;;;;;;0.30;0.10;;;32.70;42.70;;;;;;5113919;28;20059;-78
2022/08/12 10:43:44;;;;;;;2.15;0.10;;;32.90;42.30;;;;;;5118612;28;20468;-75
2022/08/12 10:46:16;;;;;;;0.60;0.10;;;33.00;42.10;;;;;;5115818;28;20185;-76
2022/08/12 10:48:46;;;;;;;2.15;0.15;;;33.10;42.10;;;;;;5117030;28;20152;-76
2022/08/12 10:51:11;;;;;;;0.30;0.05;;;33.20;41.40;;;;;;5115301;28;20069;-76
2022/08/12 10:53:37;;;;;;;0.50;0.10;;;33.30;40.60;;;;;;5116702;28;20015;-75
2022/08/12 10:56:03;;;;;;;3.53;0.03;;;33.40;41.00;;;;;;5115142;28;20020;-76
2022/08/12 10:58:28;;;;;;;3.47;0.00;;;33.50;41.20;;;;;;5116416;28;20073;-76
2022/08/12 11:00:54;;;;;;;0.17;0.10;;;33.60;41.60;;;;;;5116614;28;20474;-76
2022/08/12 11:03:20;;;;;;;3.63;0.70;;;33.70;41.40;;;;;;5116285;28;20091;-76
2022/08/12 11:05:46;;;;;;;1.58;0.20;;;33.90;41.30;;;;;;5114949;28;20539;-76
2022/08/12 11:08:13;;;;;;;0.30;0.10;;;33.90;41.10;;;;;;5116326;28;20440;-76
2022/08/12 11:10:38;;;;;;;1.92;0.10;;;34.10;41.70;;;;;;5097413;28;20103;-76
2022/08/12 11:13:04;;;;;;;1.90;0.68;;;34.10;41.30;;;;;;5094472;28;20131;-76
2022/08/12 11:15:32;;;;;;;6.13;0.20;;;34.20;41.10;;;;;;5095830;28;20058;-76
2022/08/12 11:17:58;;;;;;;0.63;0.10;;;34.20;41.20;;;;;;5094483;28;20546;-76
2022/08/12 11:20:24;;;;;;;0.65;0.10;;;34.40;40.30;;;;;;5095743;28;20012;-77
2022/08/12 11:22:57;;;;;;;2.55;0.35;;;34.50;40.40;;;;;;5095468;28;20095;-76
2022/08/12 11:25:23;;;;;;;3.83;0.20;;;34.60;40.70;;;;;;5094639;28;20038;-77
2022/08/12 11:27:48;;;;;;;1.85;0.20;;;34.80;40.70;;;;;;5095828;28;20099;-77
2022/08/12 11:30:14;;;;;;;2.53;0.22;;;34.90;39.80;;;;;;5095816;28;20013;-77
2022/08/12 11:32:39;;;;;;;3.40;0.30;;;34.90;40.50;;;;;;5095440;28;20019;-76
2022/08/12 11:35:06;;;;;;;3.50;0.20;;;34.90;39.70;;;;;;5094108;28;20023;-76
2022/08/12 11:37:32;;;;;;;0.63;0.20;;;35.10;40.80;;;;;;5095334;28;20056;-76
2022/08/12 11:39:58;;;;;;;1.33;0.20;;;35.10;40.80;;;;;;5095298;28;20070;-76
2022/08/12 11:42:23;;;;;;;5.20;0.77;;;35.30;41.10;;;;;;5095070;28;20050;-75
2022/08/12 11:44:49;;;;;;;0.38;0.10;;;35.30;40.50;;;;;;5095188;28;20034;-75
2022/08/12 11:47:15;;;;;;;0.75;0.10;;;35.40;40.80;;;;;;5094962;28;20111;-76
2022/08/12 11:49:40;;;;;;;3.85;0.10;;;35.60;39.40;;;;;;5095250;28;20069;-76
2022/08/12 11:52:06;;;;;;;3.13;0.52;;;35.70;39.70;;;;;;5094712;28;20167;-74
2022/08/12 11:54:31;;;;;;;2.55;0.77;;;35.90;40.00;;;;;;5094835;28;20114;-77
2022/08/12 11:56:58;;;;;;;1.15;0.10;;;36.00;39.20;;;;;;5094868;28;20028;-74
2022/08/12 11:59:24;;;;;;;2.70;0.10;;;36.30;40.10;;;;;;5094982;28;20473;-74
2022/08/12 12:01:49;;;;;;;3.70;0.50;;;36.40;40.50;;;;;;5094808;28;20031;-74
2022/08/12 12:04:15;;;;;;;0.85;0.10;;;36.40;40.00;;;;;;5094782;28;20074;-74
2022/08/12 12:06:41;;;;;;;2.63;0.10;;;36.40;39.40;;;;;;5093426;28;20103;-75
2022/08/12 12:09:06;;;;;;;3.17;0.10;;;36.40;39.30;;;;;;5093964;28;20599;-74
2022/08/12 12:11:32;;;;;;;1.55;0.20;;;36.50;39.40;;;;;;5094669;28;20114;-76
2022/08/12 12:13:57;;;;;;;0.90;0.10;;;36.50;39.00;;;;;;5094624;28;20484;-76
2022/08/12 12:16:23;;;;;;;0.90;0.10;;;36.60;39.40;;;;;;5094473;28;20107;-76
2022/08/12 12:18:48;;;;;;;2.28;0.10;;;36.70;39.20;;;;;;5094460;28;20062;-76
2022/08/12 12:21:14;;;;;;;3.50;0.10;;;36.70;37.40;;;;;;5094914;28;20099;-76
2022/08/12 12:23:40;;;;;;;0.20;0.10;;;36.50;37.00;;;;;;5094861;28;20031;-74
2022/08/12 12:26:06;;;;;;;6.53;0.00;;;36.60;36.60;;;;;;5094904;28;20024;-75
2022/08/12 12:28:32;;;;;;;1.30;0.22;;;36.70;36.80;;;;;;5093071;28;20477;-75
2022/08/12 12:30:58;;;;;;;0.30;0.17;;;36.90;36.60;;;;;;5094298;28;20031;-74
2022/08/12 12:33:24;;;;;;;7.07;0.00;;;37.20;36.60;;;;;;5094465;28;20043;-77
2022/08/12 12:35:50;;;;;;;0.80;0.10;;;37.30;36.00;;;;;;5094141;28;20025;-74
2022/08/12 12:38:16;;;;;;;4.45;0.28;;;37.40;35.60;;;;;;5094095;28;20035;-74
2022/08/12 12:40:44;;;;;;;4.75;0.13;;;37.40;34.40;;;;;;5092811;28;20074;-74
2022/08/12 12:43:11;;;;;;;1.55;0.20;;;37.50;35.50;;;;;;5092592;28;20035;-74
2022/08/12 12:45:38;;;;;;;2.20;0.10;;;37.50;36.00;;;;;;5092729;28;20118;-74
2022/08/12 12:48:05;;;;;;;0.82;0.10;;;37.70;35.10;;;;;;5094041;28;20054;-74
2022/08/12 12:50:36;;;;;;;0.80;0.10;;;37.70;34.50;;;;;;5092746;28;20028;-74
2022/08/12 12:53:03;;;;;;;0.80;0.10;;;37.90;34.80;;;;;;5093879;28;20023;-75
2022/08/12 12:55:29;;;;;;;1.08;0.17;;;38.10;34.10;;;;;;5092377;28;20031;-75
2022/08/12 12:57:57;;;;;;;0.60;0.38;;;38.30;35.00;;;;;;5092566;28;20024;-75
2022/08/12 13:00:24;;;;;;;0.22;0.10;;;38.50;34.80;;;;;;5092752;28;20017;-78
2022/08/12 13:02:54;;;;;;;0.25;0.00;;;38.50;33.70;;;;;;5092630;28;20362;-77
2022/08/12 13:05:22;;;;;;;2.88;0.20;;;38.60;34.00;;;;;;5092441;28;20069;-76
2022/08/12 13:07:49;;;;;;;0.38;0.10;;;38.80;34.20;;;;;;5094165;28;20051;-76
2022/08/12 13:10:17;;;;;;;0.65;0.10;;;38.90;33.70;;;;;;5093914;28;20423;-77
2022/08/12 13:12:44;;;;;;;1.58;0.13;;;38.90;33.70;;;;;;5093773;28;20031;-77
2022/08/12 13:15:14;;;;;;;2.35;0.10;;;39.00;34.00;;;;;;5093697;28;20404;-77
2022/08/12 13:17:42;;;;;;;3.58;0.30;;;39.00;33.20;;;;;;5092338;28;20016;-76
2022/08/12 13:20:08;;;;;;;0.90;0.00;;;39.20;32.90;;;;;;5093697;28;20031;-76
2022/08/12 13:22:33;;;;;;;1.50;0.00;;;39.30;33.50;;;;;;5093361;28;20024;-75
2022/08/12 13:25:00;;;;;;;1.65;0.00;;;39.20;32.60;;;;;;5093157;28;20054;-78
2022/08/12 13:27:34;;;;;;;0.90;0.00;;;39.10;33.50;;;;;;5091997;28;20107;-74
2022/08/12 13:30:02;;;;;;;1.35;0.20;;;39.10;32.60;;;;;;5093259;28;20032;-74
2022/08/12 13:32:28;;;;;;;1.35;0.10;;;39.20;32.70;;;;;;5092897;28;20032;-74
2022/08/12 13:34:58;;;;;;;0.90;0.25;;;39.50;33.40;;;;;;5096497;28;20031;-74
2022/08/12 13:37:26;;;;;;;0.10;0.00;;;39.60;32.20;;;;;;5097949;28;20069;-74
2022/08/12 13:39:52;;;;;;;0.43;0.30;;;39.50;32.20;;;;;;5100767;28;20020;-74
2022/08/12 13:42:18;;;;;;;0.70;0.10;;;39.60;32.30;;;;;;5104616;28;20154;-74
2022/08/12 13:44:44;;;;;;;0.50;0.00;;;39.40;33.00;;;;;;5107994;28;20476;-74
2022/08/12 13:47:10;;;;;;;3.13;0.15;;;39.60;32.80;;;;;;5100440;28;20038;-74
2022/08/12 13:49:36;;;;;;;2.63;0.00;;;39.70;33.00;;;;;;5105290;28;20375;-74
2022/08/12 13:52:05;;;;;;;1.13;0.00;;;39.90;32.60;;;;;;5102302;28;20016;-74
2022/08/12 13:54:31;;;;;;;1.13;0.20;;;40.00;32.20;;;;;;5103423;28;20099;-75
2022/08/12 13:56:57;;;;;;;0.20;0.00;;;39.90;32.10;;;;;;5100755;28;20024;-74
2022/08/12 13:59:23;;;;;;;1.80;0.10;;;39.80;32.10;;;;;;5101520;28;20103;-74
2022/08/12 14:01:53;;;;;;;4.72;0.00;;;39.70;33.00;;;;;;5103397;28;20357;-74
2022/08/12 14:04:21;;;;;;;0.55;0.00;;;39.80;32.50;;;;;;5105409;28;20024;-77
2022/08/12 14:06:49;;;;;;;1.23;0.08;;;39.80;31.70;;;;;;5112242;28;20106;-74
2022/08/12 14:09:15;;;;;;;0.85;0.00;;;39.80;32.50;;;;;;5113432;28;20091;-73
2022/08/12 14:11:41;;;;;;;1.73;0.00;;;39.90;32.20;;;;;;5113745;28;20024;-73
2022/08/12 14:14:08;;;;;;;2.08;0.10;;;40.00;33.20;;;;;;5113164;28;20032;-73
2022/08/12 14:16:34;;;;;;;1.45;0.43;;;40.20;32.50;;;;;;5116240;28;20090;-73
2022/08/12 14:19:02;;;;;;;4.50;0.20;;;40.30;32.10;;;;;;5117204;28;20021;-75
2022/08/12 14:21:28;;;;;;;0.38;0.10;;;40.20;31.30;;;;;;5117113;28;20503;-76
2022/08/12 14:23:54;;;;;;;2.83;0.10;;;40.10;31.70;;;;;;5117242;28;20015;-75
2022/08/12 14:26:23;;;;;;;0.40;0.10;;;40.10;31.40;;;;;;5117125;28;20035;-75
2022/08/12 14:28:50;;;;;;;6.05;0.20;;;40.30;31.90;;;;;;5115685;28;20023;-75
2022/08/12 14:31:16;;;;;;;2.07;0.10;;;40.10;31.50;;;;;;5115662;28;20111;-75
2022/08/12 14:33:47;;;;;;;0.63;0.00;;;40.10;32.10;;;;;;5115463;28;20328;-75
2022/08/12 14:36:21;;;;;;;0.57;0.00;;;40.10;31.70;;;;;;5115601;28;20024;-75
2022/08/12 14:38:51;;;;;;;2.45;0.10;;;40.00;31.90;;;;;;5117518;28;20361;-74
2022/08/12 14:41:18;;;;;;;1.67;0.10;;;40.10;31.40;;;;;;5115529;28;20046;-74